createdAt,value
2022-07-29T00:02:06.069Z,102235.16
2022-07-29T00:04:36.329Z,102229.02
2022-07-29T00:07:05.251Z,102229.71
2022-07-29T00:09:33.930Z,102225.84
2022-07-29T00:12:25.269Z,102226.52
2022-07-29T00:14:57.935Z,102225.80
2022-07-29T00:17:26.622Z,102225.61
2022-07-29T00:19:54.692Z,102227.00
2022-07-29T00:22:22.875Z,102231.19
2022-07-29T00:24:51.346Z,102229.95
2022-07-29T00:27:19.879Z,102231.33
2022-07-29T00:29:47.902Z,102233.58
2022-07-29T00:32:15.939Z,102236.17
2022-07-29T00:35:02.345Z,102239.66
2022-07-29T00:37:30.398Z,102242.44
2022-07-29T00:39:58.451Z,102245.75
2022-07-29T00:42:26.581Z,102242.77
2022-07-29T00:44:54.665Z,102238.73
2022-07-29T00:47:22.629Z,102240.10
2022-07-29T00:49:50.740Z,102237.78
2022-07-29T00:52:18.780Z,102241.79
2022-07-29T00:54:47.004Z,102241.59
2022-07-29T00:57:14.992Z,102238.94
2022-07-29T00:59:43.194Z,102239.42
2022-07-29T01:02:11.601Z,102237.65
2022-07-29T01:04:40.407Z,102237.64
2022-07-29T01:07:09.028Z,102241.12
2022-07-29T01:09:46.878Z,102240.40
2022-07-29T01:12:18.861Z,102236.19
2022-07-29T01:14:49.004Z,102234.92
2022-07-29T01:17:19.662Z,102235.83
2022-07-29T01:20:05.968Z,102237.73
2022-07-29T01:22:59.970Z,102237.52
2022-07-29T01:25:42.897Z,102235.95
2022-07-29T01:28:43.067Z,102240.15
2022-07-29T01:31:25.415Z,102237.52
2022-07-29T01:34:02.770Z,102238.58
2022-07-29T01:36:30.922Z,102243.30
2022-07-29T01:39:28.378Z,102237.19
2022-07-29T01:42:07.233Z,102239.63
2022-07-29T01:44:58.770Z,102239.63
2022-07-29T01:47:35.704Z,102236.63
2022-07-29T01:50:09.951Z,102231.71
2022-07-29T01:52:45.055Z,102233.98
2022-07-29T01:55:18.611Z,102232.38
2022-07-29T01:57:49.074Z,102234.80
2022-07-29T02:00:18.275Z,102240.55
2022-07-29T02:02:48.872Z,102243.48
2022-07-29T02:05:19.845Z,102244.65
2022-07-29T02:07:49.452Z,102241.83
2022-07-29T02:10:25.736Z,102244.27
2022-07-29T02:12:56.251Z,102242.86
2022-07-29T02:15:31.211Z,102241.46
2022-07-29T02:18:16.985Z,102244.95
2022-07-29T02:20:48.251Z,102248.96
2022-07-29T02:23:22.127Z,102250.11
2022-07-29T02:25:53.274Z,102246.33
2022-07-29T02:28:23.984Z,102246.21
2022-07-29T02:30:54.591Z,102240.00
2022-07-29T02:33:24.881Z,102243.59
2022-07-29T02:35:53.883Z,102244.21
2022-07-29T02:38:42.377Z,102242.25
2022-07-29T02:41:14.955Z,102239.22
2022-07-29T02:43:46.221Z,102236.73
2022-07-29T02:46:28.494Z,102242.79
2022-07-29T02:49:33.232Z,102243.45
2022-07-29T02:52:09.780Z,102245.52
2022-07-29T02:54:58.132Z,102245.14
2022-07-29T02:57:31.688Z,102244.77
2022-07-29T03:00:05.332Z,102244.72
2022-07-29T03:02:44.854Z,102245.41
2022-07-29T03:05:18.580Z,102251.88
2022-07-29T03:07:50.757Z,102250.83
2022-07-29T03:10:19.862Z,102255.20
2022-07-29T03:12:49.049Z,102256.08
2022-07-29T03:15:17.995Z,102255.90
2022-07-29T03:17:47.565Z,102251.90
2022-07-29T03:20:15.877Z,102254.17
2022-07-29T03:22:45.221Z,102253.86
2022-07-29T03:25:14.985Z,102253.88
2022-07-29T03:27:43.924Z,102254.06
2022-07-29T03:30:21.746Z,102253.02
2022-07-29T03:32:52.095Z,102253.91
2022-07-29T03:35:21.449Z,102253.94
2022-07-29T03:37:50.521Z,102252.20
2022-07-29T03:40:27.243Z,102247.69
2022-07-29T03:42:56.922Z,102251.38
2022-07-29T03:45:26.508Z,102248.45
2022-07-29T03:48:01.286Z,102249.21
2022-07-29T03:50:32.127Z,102252.42
2022-07-29T03:53:00.373Z,102250.92
2022-07-29T03:55:30.687Z,102251.50
2022-07-29T03:57:59.853Z,102255.41
2022-07-29T04:00:29.767Z,102255.83
2022-07-29T04:02:58.451Z,102253.45
2022-07-29T04:05:26.553Z,102252.48
2022-07-29T04:07:54.580Z,102250.81
2022-07-29T04:10:30.308Z,102249.67
2022-07-29T04:13:00.923Z,102249.77
2022-07-29T04:15:30.918Z,102251.85
2022-07-29T04:18:00.746Z,102255.38
2022-07-29T04:20:29.223Z,102252.23
2022-07-29T04:22:57.284Z,102257.79
2022-07-29T04:25:25.354Z,102257.76
2022-07-29T04:28:02.636Z,102257.27
2022-07-29T04:30:32.237Z,102253.21
2022-07-29T04:33:03.937Z,102256.34
2022-07-29T04:35:38.007Z,102250.62
2022-07-29T04:38:07.562Z,102251.02
2022-07-29T04:40:43.884Z,102248.67
2022-07-29T04:43:14.151Z,102249.21
2022-07-29T04:45:42.624Z,102249.27
2022-07-29T04:48:10.687Z,102248.86
2022-07-29T04:50:41.920Z,102237.84
2022-07-29T04:53:10.082Z,102238.21
2022-07-29T04:55:39.022Z,102233.59
2022-07-29T04:58:07.438Z,102236.73
2022-07-29T05:00:35.933Z,102230.87
2022-07-29T05:03:05.330Z,102229.75
2022-07-29T05:05:33.598Z,102230.29
2022-07-29T05:08:02.195Z,102233.96
2022-07-29T05:10:30.250Z,102234.08
2022-07-29T05:12:58.428Z,102231.33
2022-07-29T05:15:27.111Z,102232.77
2022-07-29T05:17:55.219Z,102237.79
2022-07-29T05:20:27.756Z,102233.62
2022-07-29T05:22:57.477Z,102234.84
2022-07-29T05:25:44.366Z,102234.08
2022-07-29T05:28:13.320Z,102232.45
2022-07-29T05:30:41.579Z,102232.95
2022-07-29T05:33:35.732Z,102230.09
2022-07-29T05:36:00.603Z,102229.91
2022-07-29T05:38:30.026Z,102233.13
2022-07-29T05:40:59.805Z,102234.34
2022-07-29T05:43:28.982Z,102232.27
2022-07-29T05:45:58.090Z,102230.36
2022-07-29T05:48:26.550Z,102228.04
2022-07-29T05:50:55.637Z,102227.90
2022-07-29T05:53:23.807Z,102232.95
2022-07-29T05:55:51.936Z,102230.38
2022-07-29T05:58:20.203Z,102226.91
2022-07-29T06:00:48.442Z,102228.38
2022-07-29T06:03:16.981Z,102223.88
2022-07-29T06:05:45.763Z,102222.75
2022-07-29T06:08:13.804Z,102224.44
2022-07-29T06:10:41.910Z,102226.52
2022-07-29T06:13:10.256Z,102222.98
2022-07-29T06:15:38.778Z,102229.71
2022-07-29T06:18:10.226Z,102235.41
2022-07-29T06:20:39.339Z,102230.56
2022-07-29T06:23:07.679Z,102226.80
2022-07-29T06:25:37.923Z,102228.89
2022-07-29T06:28:06.125Z,102228.49
2022-07-29T06:30:34.305Z,102234.01
2022-07-29T06:33:03.962Z,102234.74
2022-07-29T06:35:38.920Z,102236.66
2022-07-29T06:38:31.360Z,102236.39
2022-07-29T06:41:04.056Z,102235.12
2022-07-29T06:43:52.556Z,102230.70
2022-07-29T06:46:24.140Z,102234.36
2022-07-29T06:48:53.461Z,102239.36
2022-07-29T06:51:23.944Z,102242.97
2022-07-29T06:53:59.919Z,102237.64
2022-07-29T06:56:40.108Z,102233.88
2022-07-29T06:59:10.247Z,102234.30
2022-07-29T07:01:43.919Z,102233.88
2022-07-29T07:04:12.576Z,102238.56
2022-07-29T07:06:41.110Z,102236.20
2022-07-29T07:09:09.422Z,102235.21
2022-07-29T07:11:37.447Z,102231.80
2022-07-29T07:14:05.552Z,102227.95
2022-07-29T07:16:33.810Z,102230.52
2022-07-29T07:19:02.327Z,102222.02
2022-07-29T07:21:31.179Z,102224.93
2022-07-29T07:24:00.369Z,102232.98
2022-07-29T07:26:29.340Z,102234.98
2022-07-29T07:28:57.828Z,102240.27
2022-07-29T07:31:26.038Z,102239.58
2022-07-29T07:33:54.808Z,102239.55
2022-07-29T07:36:23.699Z,102240.81
2022-07-29T07:38:51.893Z,102240.51
2022-07-29T07:41:19.960Z,102235.77
2022-07-29T07:43:48.383Z,102237.67
2022-07-29T07:46:17.052Z,102237.42
2022-07-29T07:48:45.677Z,102231.47
2022-07-29T07:51:13.990Z,102237.21
2022-07-29T07:53:42.290Z,102237.41
2022-07-29T07:56:12.272Z,102232.13
2022-07-29T07:58:40.757Z,102232.47
2022-07-29T08:01:09.790Z,102232.65
2022-07-29T08:03:38.435Z,102239.02
2022-07-29T08:06:06.804Z,102240.44
2022-07-29T08:08:35.189Z,102241.73
2022-07-29T08:11:09.171Z,102244.60
2022-07-29T08:13:39.190Z,102244.58
2022-07-29T08:16:16.073Z,102250.54
2022-07-29T08:18:46.106Z,102247.98
2022-07-29T08:21:16.247Z,102254.55
2022-07-29T08:23:55.857Z,102255.64
2022-07-29T08:26:26.976Z,102254.48
2022-07-29T08:28:55.185Z,102259.07
2022-07-29T08:31:23.333Z,102258.86
2022-07-29T08:33:51.388Z,102256.89
2022-07-29T08:36:22.359Z,102260.24
2022-07-29T08:38:50.760Z,102255.45
2022-07-29T08:41:21.279Z,102258.78
2022-07-29T08:43:50.535Z,102259.27
2022-07-29T08:46:19.674Z,102261.55
2022-07-29T08:48:48.747Z,102262.43
2022-07-29T08:51:18.823Z,102261.29
2022-07-29T08:53:49.812Z,102262.23
2022-07-29T08:56:20.447Z,102265.46
2022-07-29T08:58:51.844Z,102267.26
2022-07-29T09:01:35.546Z,102263.08
2022-07-29T09:04:11.405Z,102261.18
2022-07-29T09:06:44.282Z,102260.64
2022-07-29T09:09:13.008Z,102261.81
2022-07-29T09:11:42.286Z,102259.71
2022-07-29T09:14:13.376Z,102253.34
2022-07-29T09:16:53.094Z,102249.70
2022-07-29T09:19:29.207Z,102250.98
2022-07-29T09:21:59.658Z,102247.95
2022-07-29T09:24:40.139Z,102242.85
2022-07-29T09:27:12.613Z,102236.48
2022-07-29T09:29:40.968Z,102232.73
2022-07-29T09:32:11.816Z,102234.66
2022-07-29T09:34:40.253Z,102230.33
2022-07-29T09:37:08.680Z,102227.30
2022-07-29T09:39:47.676Z,102232.55
2022-07-29T09:42:30.367Z,102231.23
2022-07-29T09:44:58.565Z,102234.70
2022-07-29T09:47:42.483Z,102232.39
2022-07-29T09:50:10.791Z,102231.94
2022-07-29T09:52:53.371Z,102229.93
2022-07-29T09:55:21.592Z,102232.77
2022-07-29T09:57:50.296Z,102231.38
2022-07-29T10:00:21.382Z,102224.14
2022-07-29T10:02:50.379Z,102222.48
2022-07-29T10:05:18.374Z,102214.57
2022-07-29T10:07:57.797Z,102212.80
2022-07-29T10:10:36.877Z,102210.04
2022-07-29T10:13:08.930Z,102212.40
2022-07-29T10:15:45.347Z,102208.39
2022-07-29T10:18:18.473Z,102207.57
2022-07-29T10:20:46.728Z,102203.26
2022-07-29T10:23:15.379Z,102201.28
2022-07-29T10:25:46.619Z,102202.65
2022-07-29T10:28:16.719Z,102204.55
2022-07-29T10:30:46.996Z,102198.48
2022-07-29T10:33:42.519Z,102195.75
2022-07-29T10:36:43.722Z,102200.08
2022-07-29T10:39:22.570Z,102195.77
2022-07-29T10:42:03.697Z,102194.50
2022-07-29T10:44:32.368Z,102197.88
2022-07-29T10:47:00.985Z,102197.27
2022-07-29T10:49:31.121Z,102194.02
2022-07-29T10:52:07.070Z,102197.08
2022-07-29T10:54:43.880Z,102198.58
2022-07-29T10:57:25.728Z,102198.78
2022-07-29T11:00:16.866Z,102192.73
2022-07-29T11:02:50.181Z,102194.84
2022-07-29T11:05:22.427Z,102198.35
2022-07-29T11:08:26.471Z,102192.83
2022-07-29T11:11:29.813Z,102189.71
2022-07-29T11:13:58.296Z,102192.04
2022-07-29T11:16:26.795Z,102189.48
2022-07-29T11:19:26.463Z,102187.38
2022-07-29T11:22:00.550Z,102186.20
2022-07-29T11:24:34.931Z,102191.30
2022-07-29T11:27:19.635Z,102185.42
2022-07-29T11:29:56.571Z,102178.89
2022-07-29T11:32:38.357Z,102180.19
2022-07-29T11:35:36.759Z,102178.43
2022-07-29T11:38:28.823Z,102181.67
2022-07-29T11:41:19.014Z,102178.98
2022-07-29T11:43:52.448Z,102173.20
2022-07-29T11:46:45.894Z,102174.13
2022-07-29T11:49:32.244Z,102173.44
2022-07-29T11:52:05.037Z,102168.91
2022-07-29T11:54:52.610Z,102169.00
2022-07-29T11:57:35.954Z,102171.20
2022-07-29T12:00:12.620Z,102168.91
2022-07-29T12:02:48.272Z,102168.88
2022-07-29T12:05:36.482Z,102166.56
2022-07-29T12:08:12.470Z,102171.17
2022-07-29T12:10:41.686Z,102170.15
2022-07-29T12:13:11.286Z,102172.81
2022-07-29T12:15:47.003Z,102170.73
2022-07-29T12:18:18.836Z,102161.42
2022-07-29T12:20:48.889Z,102157.73
2022-07-29T12:23:18.821Z,102156.77
2022-07-29T12:25:49.699Z,102164.34
2022-07-29T12:28:26.989Z,102159.70
2022-07-29T12:30:56.026Z,102158.54
2022-07-29T12:33:29.758Z,102159.63
2022-07-29T12:36:12.865Z,102157.13
2022-07-29T12:38:46.863Z,102157.29
2022-07-29T12:41:15.245Z,102157.88
2022-07-29T12:43:55.038Z,102150.40
2022-07-29T12:46:23.357Z,102152.91
2022-07-29T12:48:57.753Z,102152.89
2022-07-29T12:51:32.543Z,102151.15
2022-07-29T12:54:17.546Z,102148.77
2022-07-29T12:56:46.140Z,102145.60
2022-07-29T12:59:20.425Z,102145.48
2022-07-29T13:01:52.134Z,102148.60
2022-07-29T13:04:37.613Z,102146.41
2022-07-29T13:07:10.317Z,102146.63
2022-07-29T13:09:47.668Z,102149.77
2022-07-29T13:12:16.375Z,102151.44
2022-07-29T13:14:48.965Z,102151.44
2022-07-29T13:17:18.756Z,102146.41
2022-07-29T13:19:51.689Z,102145.60
2022-07-29T13:22:24.530Z,102146.49
2022-07-29T13:24:56.988Z,102151.08
2022-07-29T13:27:30.797Z,102145.73
2022-07-29T13:30:00.863Z,102144.66
2022-07-29T13:32:31.036Z,102137.88
2022-07-29T13:35:05.398Z,102140.38
2022-07-29T13:37:35.989Z,102138.31
2022-07-29T13:40:05.272Z,102136.69
2022-07-29T13:42:33.794Z,102139.44
2022-07-29T13:45:02.660Z,102145.23
2022-07-29T13:47:32.660Z,102138.65
2022-07-29T13:50:06.822Z,102142.06
2022-07-29T13:52:35.776Z,102142.38
2022-07-29T13:55:04.703Z,102141.31
2022-07-29T13:57:33.149Z,102143.50
2022-07-29T14:00:01.236Z,102144.30
2022-07-29T14:02:36.520Z,102143.69
2022-07-29T14:05:08.573Z,102141.61
2022-07-29T14:07:39.729Z,102142.48
2022-07-29T14:10:09.362Z,102148.14
2022-07-29T14:12:37.641Z,102151.60
2022-07-29T14:15:06.566Z,102155.82
2022-07-29T14:17:35.058Z,102149.86
2022-07-29T14:20:03.387Z,102148.58
2022-07-29T14:22:31.663Z,102141.66
2022-07-29T14:25:05.091Z,102138.48
2022-07-29T14:27:44.271Z,102137.27
2022-07-29T14:30:13.088Z,102138.73
2022-07-29T14:32:41.201Z,102132.40
2022-07-29T14:35:09.628Z,102130.91
2022-07-29T14:37:40.376Z,102131.98
2022-07-29T14:40:10.572Z,102134.65
2022-07-29T14:42:39.604Z,102132.04
2022-07-29T14:45:09.275Z,102127.92
2022-07-29T14:47:39.206Z,102131.61
2022-07-29T14:50:08.168Z,102132.34
2022-07-29T14:52:36.592Z,102127.02
2022-07-29T14:55:05.640Z,102130.08
2022-07-29T14:57:44.742Z,102132.88
2022-07-29T15:00:14.464Z,102123.27
2022-07-29T15:03:00.922Z,102125.01
2022-07-29T15:05:31.535Z,102120.90
2022-07-29T15:08:01.046Z,102119.95
2022-07-29T15:10:30.006Z,102119.36
2022-07-29T15:12:58.371Z,102118.09
2022-07-29T15:15:27.088Z,102121.05
2022-07-29T15:17:55.567Z,102121.08
2022-07-29T15:20:26.530Z,102122.11
2022-07-29T15:22:56.608Z,102122.16
2022-07-29T15:25:25.743Z,102117.29
2022-07-29T15:28:01.113Z,102113.83
2022-07-29T15:30:34.429Z,102114.22
2022-07-29T15:33:04.581Z,102113.56
2022-07-29T15:35:40.422Z,102117.52
2022-07-29T15:38:09.728Z,102111.89
2022-07-29T15:40:41.398Z,102109.46
2022-07-29T15:43:09.506Z,102106.46
2022-07-29T15:45:42.921Z,102105.07
2022-07-29T15:48:14.586Z,102101.20
2022-07-29T15:50:47.124Z,102100.32
2022-07-29T15:53:15.661Z,102097.30
2022-07-29T15:55:44.477Z,102093.20
2022-07-29T15:58:13.060Z,102087.30
2022-07-29T16:00:41.130Z,102084.73
2022-07-29T16:03:09.381Z,102079.52
2022-07-29T16:05:37.643Z,102078.70
2022-07-29T16:08:06.482Z,102081.60
2022-07-29T16:10:35.244Z,102072.50
2022-07-29T16:13:03.469Z,102069.40
2022-07-29T16:15:31.694Z,102074.28
2022-07-29T16:17:59.911Z,102073.19
2022-07-29T16:20:28.159Z,102075.52
2022-07-29T16:22:56.671Z,102071.81
2022-07-29T16:25:43.926Z,102071.19
2022-07-29T16:28:13.123Z,102071.83
2022-07-29T16:30:41.468Z,102067.09
2022-07-29T16:33:09.671Z,102067.85
2022-07-29T16:35:40.500Z,102064.79
2022-07-29T16:38:08.679Z,102069.66
2022-07-29T16:40:37.059Z,102075.81
2022-07-29T16:43:05.059Z,102070.81
2022-07-29T16:45:45.352Z,102074.10
2022-07-29T16:48:15.552Z,102068.22
2022-07-29T16:50:46.748Z,102067.63
2022-07-29T16:53:14.849Z,102061.94
2022-07-29T16:55:43.196Z,102059.98
2022-07-29T16:58:11.969Z,102059.63
2022-07-29T17:00:40.755Z,102056.79
2022-07-29T17:03:08.989Z,102057.88
2022-07-29T17:05:52.570Z,102064.45
2022-07-29T17:08:23.398Z,102060.23
2022-07-29T17:10:51.896Z,102058.63
2022-07-29T17:13:20.341Z,102058.10
2022-07-29T17:15:48.660Z,102051.02
2022-07-29T17:18:17.033Z,102048.48
2022-07-29T17:20:45.695Z,102046.17
2022-07-29T17:23:13.888Z,102045.25
2022-07-29T17:25:42.013Z,102043.77
2022-07-29T17:28:10.233Z,102047.07
2022-07-29T17:30:38.290Z,102052.10
2022-07-29T17:33:06.297Z,102051.48
2022-07-29T17:35:52.920Z,102047.51
2022-07-29T17:38:20.992Z,102051.34
2022-07-29T17:40:49.056Z,102052.67
2022-07-29T17:43:17.135Z,102053.64
2022-07-29T17:45:49.973Z,102057.45
2022-07-29T17:48:19.831Z,102057.01
2022-07-29T17:50:49.054Z,102056.36
2022-07-29T17:53:17.533Z,102055.55
2022-07-29T17:55:48.808Z,102059.30
2022-07-29T17:58:17.082Z,102058.67
2022-07-29T18:00:46.256Z,102051.15
2022-07-29T18:03:15.333Z,102058.79
2022-07-29T18:05:43.748Z,102059.03
2022-07-29T18:08:12.745Z,102063.51
2022-07-29T18:10:41.496Z,102063.95
2022-07-29T18:13:10.218Z,102064.19
2022-07-29T18:15:39.257Z,102063.20
2022-07-29T18:18:08.031Z,102059.73
2022-07-29T18:20:36.084Z,102063.00
2022-07-29T18:23:04.374Z,102056.02
2022-07-29T18:25:32.720Z,102055.95
2022-07-29T18:28:01.035Z,102057.63
2022-07-29T18:30:31.035Z,102061.03
2022-07-29T18:33:20.329Z,102060.80
2022-07-29T18:35:49.834Z,102062.27
2022-07-29T18:38:18.160Z,102060.60
2022-07-29T18:40:46.468Z,102056.80
2022-07-29T18:43:15.321Z,102055.98
2022-07-29T18:45:43.366Z,102057.11
2022-07-29T18:48:13.104Z,102058.96
2022-07-29T18:50:42.303Z,102059.56
2022-07-29T18:53:10.471Z,102060.14
2022-07-29T18:55:38.645Z,102059.83
2022-07-29T18:58:06.700Z,102064.14
2022-07-29T19:00:35.656Z,102065.41
2022-07-29T19:03:04.007Z,102071.64
2022-07-29T19:05:32.676Z,102070.63
2022-07-29T19:08:00.741Z,102069.09
2022-07-29T19:10:28.879Z,102074.63
2022-07-29T19:12:58.313Z,102073.25
2022-07-29T19:15:26.452Z,102070.30
2022-07-29T19:17:59.060Z,102069.84
2022-07-29T19:20:29.636Z,102066.69
2022-07-29T19:22:57.869Z,102064.27
2022-07-29T19:25:26.406Z,102066.41
2022-07-29T19:27:54.651Z,102062.05
2022-07-29T19:30:22.879Z,102062.08
2022-07-29T19:32:51.085Z,102066.35
2022-07-29T19:35:28.497Z,102068.66
2022-07-29T19:37:59.095Z,102069.60
2022-07-29T19:40:28.639Z,102072.64
2022-07-29T19:42:56.898Z,102074.09
2022-07-29T19:45:26.208Z,102072.55
2022-07-29T19:48:00.678Z,102070.10
2022-07-29T19:50:29.872Z,102067.48
2022-07-29T19:52:59.396Z,102062.56
2022-07-29T19:55:27.861Z,102070.17
2022-07-29T19:57:56.565Z,102065.45
2022-07-29T20:00:26.082Z,102058.77
2022-07-29T20:02:54.197Z,102055.80
2022-07-29T20:05:27.816Z,102055.48
2022-07-29T20:07:57.076Z,102056.58
2022-07-29T20:10:25.205Z,102054.46
2022-07-29T20:12:53.735Z,102056.44
2022-07-29T20:15:23.621Z,102058.23
2022-07-29T20:17:56.752Z,102058.81
2022-07-29T20:20:26.020Z,102067.83
2022-07-29T20:22:54.672Z,102066.78
2022-07-29T20:25:23.766Z,102065.39
2022-07-29T20:27:55.316Z,102076.66
2022-07-29T20:30:23.711Z,102084.24
2022-07-29T20:32:51.767Z,102069.63
2022-07-29T20:35:21.742Z,102076.85
2022-07-29T20:37:55.812Z,102080.04
2022-07-29T20:40:26.111Z,102074.92
2022-07-29T20:42:55.082Z,102070.17
2022-07-29T20:45:24.239Z,102074.23
2022-07-29T20:47:53.106Z,102072.83
2022-07-29T20:50:23.897Z,102074.06
2022-07-29T20:52:52.878Z,102073.55
2022-07-29T20:55:21.428Z,102077.27
2022-07-29T20:57:49.581Z,102073.75
2022-07-29T21:00:17.985Z,102070.94
2022-07-29T21:02:46.238Z,102075.88
2022-07-29T21:05:14.694Z,102078.52
2022-07-29T21:07:42.875Z,102082.95
2022-07-29T21:10:11.171Z,102080.49
2022-07-29T21:12:39.334Z,102075.75
2022-07-29T21:15:07.945Z,102076.66
2022-07-29T21:17:36.388Z,102076.16
2022-07-29T21:20:06.867Z,102076.19
2022-07-29T21:22:34.929Z,102070.39
2022-07-29T21:25:03.325Z,102069.70
2022-07-29T21:27:50.031Z,102073.23
2022-07-29T21:30:18.343Z,102069.55
2022-07-29T21:32:46.589Z,102069.74
2022-07-29T21:35:31.370Z,102068.35
2022-07-29T21:38:02.861Z,102071.73
2022-07-29T21:40:31.007Z,102069.46
2022-07-29T21:42:59.024Z,102072.29
2022-07-29T21:45:27.966Z,102066.84
2022-07-29T21:47:56.145Z,102060.53
2022-07-29T21:50:24.152Z,102063.00
2022-07-29T21:52:52.281Z,102063.73
2022-07-29T21:55:20.278Z,102060.95
2022-07-29T21:57:50.776Z,102061.14
2022-07-29T22:00:18.950Z,102063.64
2022-07-29T22:02:48.595Z,102062.44
2022-07-29T22:05:16.646Z,102070.23
2022-07-29T22:07:54.507Z,102064.77
2022-07-29T22:10:27.017Z,102061.80
2022-07-29T22:12:56.913Z,102066.23
2022-07-29T22:15:25.570Z,102062.75
2022-07-29T22:17:53.866Z,102060.67
2022-07-29T22:20:23.379Z,102062.64
2022-07-29T22:22:51.550Z,102064.95
2022-07-29T22:25:20.441Z,102061.98
2022-07-29T22:27:48.716Z,102062.86
2022-07-29T22:30:18.552Z,102062.72
2022-07-29T22:32:48.060Z,102063.27
2022-07-29T22:35:16.621Z,102057.83
2022-07-29T22:37:44.709Z,102054.15
2022-07-29T22:40:12.959Z,102050.98
2022-07-29T22:42:41.123Z,102042.15
2022-07-29T22:45:10.806Z,102040.39
2022-07-29T22:47:46.133Z,102039.67
2022-07-29T22:50:17.670Z,102036.83
2022-07-29T22:52:46.419Z,102034.34
2022-07-29T22:55:15.311Z,102035.39
2022-07-29T22:57:43.442Z,102032.21
2022-07-29T23:00:12.720Z,102026.56
2022-07-29T23:02:41.781Z,102020.57
2022-07-29T23:05:10.853Z,102020.76
2022-07-29T23:07:39.039Z,102017.59
2022-07-29T23:10:08.246Z,102021.82
2022-07-29T23:12:37.646Z,102023.43
2022-07-29T23:15:06.554Z,102015.70
2022-07-29T23:17:36.045Z,102013.62
2022-07-29T23:20:07.955Z,102009.95
2022-07-29T23:22:36.648Z,102008.39
2022-07-29T23:25:06.398Z,102007.70
2022-07-29T23:27:34.665Z,102007.72
2022-07-29T23:30:02.954Z,102011.44
2022-07-29T23:32:31.119Z,102013.55
2022-07-29T23:34:59.198Z,102015.15
2022-07-29T23:37:27.224Z,102012.33
2022-07-29T23:39:55.322Z,102019.73
2022-07-29T23:42:23.394Z,102012.00
2022-07-29T23:44:51.605Z,102013.07
2022-07-29T23:47:19.687Z,102014.30
2022-07-29T23:49:50.020Z,102019.41
2022-07-29T23:52:18.239Z,102009.20
2022-07-29T23:54:46.362Z,102012.54
2022-07-29T23:57:14.740Z,102008.83
2022-07-29T23:59:42.778Z,102012.34
